sensor_id;sensor_type;location;lat;lon;timestamp;pressure;altitude;pressure_sealevel;temperature;humidity
52927;BME280;40783;49.710;8.842;2023-04-21T00:00:03;98792.66;;;6.96;100.00
52927;BME280;40783;49.710;8.842;2023-04-21T00:02:32;98786.91;;;7.01;100.00
52927;BME280;40783;49.710;8.842;2023-04-21T00:04:59;98784.25;;;7.01;100.00
52927;BME280;40783;49.710;8.842;2023-04-21T00:07:24;98787.47;;;7.04;100.00
52927;BME280;40783;49.710;8.842;2023-04-21T00:09:49;98782.84;;;6.96;100.00
52927;BME280;40783;49.710;8.842;2023-04-21T00:12:14;98782.56;;;7.00;100.00
52927;BME280;40783;49.710;8.842;2023-04-21T00:14:40;98782.56;;;7.00;100.00
52927;BME280;40783;49.710;8.842;2023-04-21T00:17:05;98781.59;;;7.01;100.00
52927;BME280;40783;49.710;8.842;2023-04-21T00:19:31;98780.59;;;7.02;100.00
52927;BME280;40783;49.710;8.842;2023-04-21T00:21:57;98779.78;;;6.91;100.00
52927;BME280;40783;49.710;8.842;2023-04-21T00:24:28;98785.47;;;6.59;100.00
52927;BME280;40783;49.710;8.842;2023-04-21T00:26:53;98777.63;;;6.57;100.00
52927;BME280;40783;49.710;8.842;2023-04-21T00:29:19;98775.41;;;6.52;100.00
52927;BME280;40783;49.710;8.842;2023-04-21T00:31:44;98768.94;;;6.55;100.00
52927;BME280;40783;49.710;8.842;2023-04-21T00:34:09;98769.78;;;6.65;100.00
52927;BME280;40783;49.710;8.842;2023-04-21T00:36:35;98774.16;;;6.57;100.00
52927;BME280;40783;49.710;8.842;2023-04-21T00:39:00;98772.06;;;6.21;100.00
52927;BME280;40783;49.710;8.842;2023-04-21T00:41:27;98768.97;;;6.16;100.00
52927;BME280;40783;49.710;8.842;2023-04-21T00:44:03;98772.91;;;6.12;100.00
52927;BME280;40783;49.710;8.842;2023-04-21T00:46:36;98774.84;;;6.09;100.00
52927;BME280;40783;49.710;8.842;2023-04-21T00:49:06;98777.59;;;5.98;100.00
52927;BME280;40783;49.710;8.842;2023-04-21T00:51:35;98762.53;;;6.08;100.00
52927;BME280;40783;49.710;8.842;2023-04-21T00:54:05;98763.25;;;6.30;100.00
52927;BME280;40783;49.710;8.842;2023-04-21T00:56:32;98765.75;;;6.42;100.00
52927;BME280;40783;49.710;8.842;2023-04-21T00:58:59;98768.53;;;6.50;100.00
52927;BME280;40783;49.710;8.842;2023-04-21T01:01:27;98766.44;;;6.44;100.00
52927;BME280;40783;49.710;8.842;2023-04-21T01:03:55;98759.19;;;6.46;100.00
52927;BME280;40783;49.710;8.842;2023-04-21T01:06:21;98755.81;;;6.44;100.00
52927;BME280;40783;49.710;8.842;2023-04-21T01:08:47;98755.25;;;6.50;100.00
52927;BME280;40783;49.710;8.842;2023-04-21T01:11:13;98754.69;;;6.36;100.00
52927;BME280;40783;49.710;8.842;2023-04-21T01:13:39;98760.00;;;6.36;100.00
52927;BME280;40783;49.710;8.842;2023-04-21T01:16:04;98763.13;;;6.22;100.00
52927;BME280;40783;49.710;8.842;2023-04-21T01:18:30;98759.63;;;6.31;100.00
52927;BME280;40783;49.710;8.842;2023-04-21T01:20:55;98762.00;;;6.24;100.00
52927;BME280;40783;49.710;8.842;2023-04-21T01:23:22;98756.13;;;6.21;100.00
52927;BME280;40783;49.710;8.842;2023-04-21T01:25:53;98759.47;;;6.23;100.00
52927;BME280;40783;49.710;8.842;2023-04-21T01:28:25;98757.22;;;6.18;100.00
52927;BME280;40783;49.710;8.842;2023-04-21T01:30:51;98751.53;;;6.23;100.00
52927;BME280;40783;49.710;8.842;2023-04-21T01:33:18;98748.59;;;6.26;100.00
52927;BME280;40783;49.710;8.842;2023-04-21T01:35:48;98753.63;;;6.29;100.00
52927;BME280;40783;49.710;8.842;2023-04-21T01:38:15;98753.31;;;6.22;100.00
52927;BME280;40783;49.710;8.842;2023-04-21T01:40:46;98748.59;;;6.26;100.00
52927;BME280;40783;49.710;8.842;2023-04-21T01:43:13;98757.53;;;6.25;100.00
52927;BME280;40783;49.710;8.842;2023-04-21T01:45:38;98757.50;;;6.15;100.00
52927;BME280;40783;49.710;8.842;2023-04-21T01:48:06;98752.19;;;6.15;100.00
52927;BME280;40783;49.710;8.842;2023-04-21T01:50:31;98751.66;;;6.12;100.00
52927;BME280;40783;49.710;8.842;2023-04-21T01:53:01;98744.66;;;6.11;100.00
52927;BME280;40783;49.710;8.842;2023-04-21T01:55:28;98745.78;;;6.08;100.00
52927;BME280;40783;49.710;8.842;2023-04-21T01:57:54;98754.75;;;6.07;100.00
52927;BME280;40783;49.710;8.842;2023-04-21T02:00:22;98750.69;;;6.13;100.00
52927;BME280;40783;49.710;8.842;2023-04-21T02:02:47;98740.63;;;6.06;100.00
52927;BME280;40783;49.710;8.842;2023-04-21T02:05:12;98744.38;;;6.14;100.00
52927;BME280;40783;49.710;8.842;2023-04-21T02:07:40;98740.75;;;6.15;100.00
52927;BME280;40783;49.710;8.842;2023-04-21T02:10:08;98746.34;;;6.12;100.00
52927;BME280;40783;49.710;8.842;2023-04-21T02:12:35;98745.22;;;6.04;100.00
52927;BME280;40783;49.710;8.842;2023-04-21T02:15:04;98753.34;;;6.13;100.00
52927;BME280;40783;49.710;8.842;2023-04-21T02:17:29;98751.38;;;6.15;100.00
52927;BME280;40783;49.710;8.842;2023-04-21T02:19:55;98757.50;;;6.05;100.00
52927;BME280;40783;49.710;8.842;2023-04-21T02:22:21;98752.44;;;5.83;100.00
52927;BME280;40783;49.710;8.842;2023-04-21T02:24:47;98751.06;;;5.78;100.00
52927;BME280;40783;49.710;8.842;2023-04-21T02:27:12;98752.44;;;5.83;100.00
52927;BME280;40783;49.710;8.842;2023-04-21T02:29:40;98753.81;;;5.87;100.00
52927;BME280;40783;49.710;8.842;2023-04-21T02:32:08;98761.94;;;5.75;100.00
52927;BME280;40783;49.710;8.842;2023-04-21T02:34:35;98759.41;;;5.84;100.00
52927;BME280;40783;49.710;8.842;2023-04-21T02:37:01;98759.72;;;5.81;100.00
52927;BME280;40783;49.710;8.842;2023-04-21T02:39:29;98759.41;;;5.84;100.00
52927;BME280;40783;49.710;8.842;2023-04-21T02:41:54;98766.97;;;5.88;100.00
52927;BME280;40783;49.710;8.842;2023-04-21T02:44:20;98760.81;;;5.88;100.00
52927;BME280;40783;49.710;8.842;2023-04-21T02:46:47;98759.41;;;5.84;100.00
52927;BME280;40783;49.710;8.842;2023-04-21T02:49:15;98755.78;;;5.85;100.00
52927;BME280;40783;49.710;8.842;2023-04-21T02:51:40;98752.44;;;5.83;100.00
52927;BME280;40783;49.710;8.842;2023-04-21T02:54:06;98759.28;;;5.85;100.00
52927;BME280;40783;49.710;8.842;2023-04-21T02:56:31;98758.03;;;5.79;100.00
52927;BME280;40783;49.710;8.842;2023-04-21T02:58:58;98759.97;;;5.77;100.00
52927;BME280;40783;49.710;8.842;2023-04-21T03:01:24;98760.81;;;5.78;100.00
52927;BME280;40783;49.710;8.842;2023-04-21T03:03:49;98763.34;;;5.79;100.00
52927;BME280;40783;49.710;8.842;2023-04-21T03:06:14;98768.91;;;5.76;100.00
52927;BME280;40783;49.710;8.842;2023-04-21T03:08:42;98769.19;;;5.73;100.00
52927;BME280;40783;49.710;8.842;2023-04-21T03:11:07;98769.16;;;5.63;100.00
52927;BME280;40783;49.710;8.842;2023-04-21T03:13:32;98763.28;;;5.60;100.00
52927;BME280;40783;49.710;8.842;2023-04-21T03:16:00;98754.34;;;5.61;100.00
52927;BME280;40783;49.710;8.842;2023-04-21T03:18:25;98751.28;;;5.56;100.00
52927;BME280;40783;49.710;8.842;2023-04-21T03:20:51;98754.06;;;5.54;100.00
52927;BME280;40783;49.710;8.842;2023-04-21T03:23:17;98753.94;;;5.56;100.00
52927;BME280;40783;49.710;8.842;2023-04-21T03:25:42;98746.25;;;5.53;100.00
52927;BME280;40783;49.710;8.842;2023-04-21T03:28:08;98747.75;;;5.45;100.00
52927;BME280;40783;49.710;8.842;2023-04-21T03:30:33;98750.41;;;5.45;100.00
52927;BME280;40783;49.710;8.842;2023-04-21T03:32:58;98755.53;;;5.37;100.00
52927;BME280;40783;49.710;8.842;2023-04-21T03:35:26;98763.91;;;5.32;100.00
52927;BME280;40783;49.710;8.842;2023-04-21T03:37:54;98758.16;;;5.27;100.00
52927;BME280;40783;49.710;8.842;2023-04-21T03:40:19;98759.28;;;5.25;100.00
52927;BME280;40783;49.710;8.842;2023-04-21T03:42:45;98756.91;;;5.22;100.00
52927;BME280;40783;49.710;8.842;2023-04-21T03:45:10;98749.75;;;5.12;100.00
52927;BME280;40783;49.710;8.842;2023-04-21T03:47:35;98754.97;;;5.24;100.00
52927;BME280;40783;49.710;8.842;2023-04-21T03:50:05;98759.28;;;5.25;100.00
52927;BME280;40783;49.710;8.842;2023-04-21T03:52:33;98759.56;;;5.22;100.00
52927;BME280;40783;49.710;8.842;2023-04-21T03:54:58;98756.19;;;5.19;100.00
52927;BME280;40783;49.710;8.842;2023-04-21T03:57:24;98765.66;;;5.12;100.00
52927;BME280;40783;49.710;8.842;2023-04-21T03:59:52;98763.72;;;5.14;100.00
52927;BME280;40783;49.710;8.842;2023-04-21T04:02:19;98759.50;;;5.12;100.00
52927;BME280;40783;49.710;8.842;2023-04-21T04:04:48;98762.28;;;5.10;100.00
52927;BME280;40783;49.710;8.842;2023-04-21T04:07:13;98762.56;;;5.07;100.00
52927;BME280;40783;49.710;8.842;2023-04-21T04:09:38;98767.56;;;4.79;100.00
52927;BME280;40783;49.710;8.842;2023-04-21T04:12:06;98764.75;;;4.71;100.00
52927;BME280;40783;49.710;8.842;2023-04-21T04:14:34;98764.66;;;4.82;100.00
52927;BME280;40783;49.710;8.842;2023-04-21T04:16:59;98758.56;;;4.92;100.00
52927;BME280;40783;49.710;8.842;2023-04-21T04:19:29;98751.06;;;4.97;100.00
52927;BME280;40783;49.710;8.842;2023-04-21T04:21:58;98751.31;;;4.94;100.00
52927;BME280;40783;49.710;8.842;2023-04-21T04:24:24;98752.75;;;4.98;100.00
52927;BME280;40783;49.710;8.842;2023-04-21T04:26:51;98755.84;;;5.03;100.00
52927;BME280;40783;49.710;8.842;2023-04-21T04:29:20;98755.56;;;5.06;100.00
52927;BME280;40783;49.710;8.842;2023-04-21T04:31:46;98759.47;;;5.02;100.00
52927;BME280;40783;49.710;8.842;2023-04-21T04:34:12;98761.09;;;4.93;100.00
52927;BME280;40783;49.710;8.842;2023-04-21T04:36:37;98766.97;;;4.97;100.00
52927;BME280;40783;49.710;8.842;2023-04-21T04:39:07;98757.22;;;4.97;100.00
52927;BME280;40783;49.710;8.842;2023-04-21T04:41:36;98760.56;;;4.99;100.00
52927;BME280;40783;49.710;8.842;2023-04-21T04:44:07;98757.78;;;5.01;100.00
52927;BME280;40783;49.710;8.842;2023-04-21T04:46:33;98751.09;;;5.07;100.00
52927;BME280;40783;49.710;8.842;2023-04-21T04:49:01;98755.13;;;5.01;100.00
52927;BME280;40783;49.710;8.842;2023-04-21T04:51:27;98750.50;;;4.93;100.00
52927;BME280;40783;49.710;8.842;2023-04-21T04:53:54;98748.84;;;5.02;100.00
52927;BME280;40783;49.710;8.842;2023-04-21T04:56:22;98755.00;;;5.02;100.00
52927;BME280;40783;49.710;8.842;2023-04-21T04:58:47;98751.94;;;5.07;100.00
52927;BME280;40783;49.710;8.842;2023-04-21T05:01:16;98747.53;;;5.17;100.00
52927;BME280;40783;49.710;8.842;2023-04-21T05:03:46;98750.97;;;5.08;100.00
52927;BME280;40783;49.710;8.842;2023-04-21T05:06:12;98759.75;;;5.09;100.00
52927;BME280;40783;49.710;8.842;2023-04-21T05:08:38;98753.91;;;5.05;100.00
52927;BME280;40783;49.710;8.842;2023-04-21T05:11:05;98757.50;;;5.04;100.00
52927;BME280;40783;49.710;8.842;2023-04-21T05:13:31;98756.38;;;4.97;100.00
52927;BME280;40783;49.710;8.842;2023-04-21T05:16:04;98756.25;;;4.98;100.00
52927;BME280;40783;49.710;8.842;2023-04-21T05:18:30;98752.94;;;5.06;100.00
52927;BME280;40783;49.710;8.842;2023-04-21T05:20:55;98747.81;;;5.14;100.00
52927;BME280;40783;49.710;8.842;2023-04-21T05:23:21;98744.63;;;5.20;100.00
52927;BME280;40783;49.710;8.842;2023-04-21T05:25:49;98759.72;;;5.30;100.00
52927;BME280;40783;49.710;8.842;2023-04-21T05:28:14;98758.19;;;5.37;100.00
52927;BME280;40783;49.710;8.842;2023-04-21T05:30:40;98762.41;;;5.40;100.00
52927;BME280;40783;49.710;8.842;2023-04-21T05:33:08;98763.41;;;5.48;100.00
52927;BME280;40783;49.710;8.842;2023-04-21T05:35:33;98758.53;;;5.54;100.00
52927;BME280;40783;49.710;8.842;2023-04-21T05:38:01;98765.50;;;5.55;100.00
52927;BME280;40783;49.710;8.842;2023-04-21T05:40:29;98763.28;;;5.60;100.00
52927;BME280;40783;49.710;8.842;2023-04-21T05:42:54;98768.34;;;5.73;100.00
52927;BME280;40783;49.710;8.842;2023-04-21T05:45:22;98765.03;;;5.81;100.00
52927;BME280;40783;49.710;8.842;2023-04-21T05:47:47;98757.75;;;5.83;100.00
52927;BME280;40783;49.710;8.842;2023-04-21T05:50:12;98769.53;;;6.09;100.00
52927;BME280;40783;49.710;8.842;2023-04-21T05:52:37;98764.78;;;6.23;100.00
52927;BME280;40783;49.710;8.842;2023-04-21T05:55:03;98753.91;;;6.26;100.00
52927;BME280;40783;49.710;8.842;2023-04-21T05:57:28;98759.75;;;6.30;100.00
52927;BME280;40783;49.710;8.842;2023-04-21T05:59:54;98767.44;;;6.23;100.00
52927;BME280;40783;49.710;8.842;2023-04-21T06:02:19;98762.97;;;6.04;100.00
52927;BME280;40783;49.710;8.842;2023-04-21T06:04:44;98771.75;;;6.04;100.00
52927;BME280;40783;49.710;8.842;2023-04-21T06:07:10;98765.34;;;6.17;100.00
52927;BME280;40783;49.710;8.842;2023-04-21T06:09:40;98766.59;;;6.13;100.00
52927;BME280;40783;49.710;8.842;2023-04-21T06:12:06;98764.38;;;6.18;100.00
52927;BME280;40783;49.710;8.842;2023-04-21T06:14:31;98752.22;;;6.25;100.00
52927;BME280;40783;49.710;8.842;2023-04-21T06:16:59;98751.91;;;6.48;100.00
52927;BME280;40783;49.710;8.842;2023-04-21T06:19:24;98762.88;;;6.82;100.00
52927;BME280;40783;49.710;8.842;2023-04-21T06:21:50;98764.97;;;6.89;100.00
52927;BME280;40783;49.710;8.842;2023-04-21T06:24:16;98755.88;;;7.29;100.00
52927;BME280;40783;49.710;8.842;2023-04-21T06:26:48;98758.66;;;7.83;100.00
52927;BME280;40783;49.710;8.842;2023-04-21T06:29:15;98751.66;;;7.82;100.00
52927;BME280;40783;49.710;8.842;2023-04-21T06:31:50;98751.66;;;7.82;100.00
52927;BME280;40783;49.710;8.842;2023-04-21T06:34:17;98758.09;;;7.62;100.00
52927;BME280;40783;49.710;8.842;2023-04-21T06:36:47;98762.31;;;7.54;100.00
52927;BME280;40783;49.710;8.842;2023-04-21T06:39:27;98763.41;;;7.34;100.00
52927;BME280;40783;49.710;8.842;2023-04-21T06:41:55;98752.19;;;7.40;100.00
52927;BME280;40783;49.710;8.842;2023-04-21T06:44:22;98761.91;;;7.49;100.00
52927;BME280;40783;49.710;8.842;2023-04-21T06:46:49;98753.06;;;7.58;100.00
52927;BME280;40783;49.710;8.842;2023-04-21T06:49:15;98760.94;;;7.50;100.00
52927;BME280;40783;49.710;8.842;2023-04-21T06:51:42;98768.03;;;7.60;100.00
52927;BME280;40783;49.710;8.842;2023-04-21T06:54:07;98758.47;;;7.67;100.00
52927;BME280;40783;49.710;8.842;2023-04-21T06:56:33;98761.22;;;7.75;100.00
52927;BME280;40783;49.710;8.842;2023-04-21T06:58:58;98768.78;;;7.98;100.00
52927;BME280;40783;49.710;8.842;2023-04-21T07:01:24;98758.59;;;8.11;100.00
52927;BME280;40783;49.710;8.842;2023-04-21T07:03:49;98762.00;;;8.22;100.00
52927;BME280;40783;49.710;8.842;2023-04-21T07:06:15;98747.19;;;8.19;100.00
52927;BME280;40783;49.710;8.842;2023-04-21T07:08:42;98755.41;;;8.26;100.00
52927;BME280;40783;49.710;8.842;2023-04-21T07:11:11;98756.84;;;8.38;100.00
52927;BME280;40783;49.710;8.842;2023-04-21T07:13:38;98752.56;;;8.45;100.00
52927;BME280;40783;49.710;8.842;2023-04-21T07:16:06;98756.22;;;8.44;100.00
52927;BME280;40783;49.710;8.842;2023-04-21T07:18:31;98747.56;;;8.42;100.00
52927;BME280;40783;49.710;8.842;2023-04-21T07:20:58;98753.88;;;8.41;100.00
52927;BME280;40783;49.710;8.842;2023-04-21T07:23:26;98746.63;;;8.52;100.00
52927;BME280;40783;49.710;8.842;2023-04-21T07:25:51;98753.88;;;8.41;100.00
52927;BME280;40783;49.710;8.842;2023-04-21T07:28:19;98746.94;;;8.49;100.00
52927;BME280;40783;49.710;8.842;2023-04-21T07:30:44;98742.22;;;8.42;100.00
52927;BME280;40783;49.710;8.842;2023-04-21T07:33:09;98734.28;;;8.51;100.00
52927;BME280;40783;49.710;8.842;2023-04-21T07:35:39;98739.56;;;8.42;100.00
52927;BME280;40783;49.710;8.842;2023-04-21T07:38:04;98739.31;;;8.54;100.00
52927;BME280;40783;49.710;8.842;2023-04-21T07:40:30;98733.69;;;8.57;100.00
52927;BME280;40783;49.710;8.842;2023-04-21T07:42:57;98734.91;;;8.89;100.00
52927;BME280;40783;49.710;8.842;2023-04-21T07:45:23;98741.63;;;9.01;100.00
52927;BME280;40783;49.710;8.842;2023-04-21T07:47:49;98741.06;;;9.24;100.00
52927;BME280;40783;49.710;8.842;2023-04-21T07:50:16;98741.16;;;9.41;100.00
52927;BME280;40783;49.710;8.842;2023-04-21T07:52:41;98732.97;;;9.42;100.00
52927;BME280;40783;49.710;8.842;2023-04-21T07:55:07;98728.84;;;9.56;100.00
52927;BME280;40783;49.710;8.842;2023-04-21T07:57:32;98730.88;;;9.71;100.00
52927;BME280;40783;49.710;8.842;2023-04-21T08:00:03;98730.25;;;9.77;100.00
52927;BME280;40783;49.710;8.842;2023-04-21T08:02:30;98737.91;;;9.72;100.00
52927;BME280;40783;49.710;8.842;2023-04-21T08:04:56;98733.44;;;9.89;100.00
52927;BME280;40783;49.710;8.842;2023-04-21T08:07:21;98732.78;;;9.95;100.00
52927;BME280;40783;49.710;8.842;2023-04-21T08:09:51;98744.59;;;9.76;100.00
52927;BME280;40783;49.710;8.842;2023-04-21T08:12:20;98742.63;;;9.94;100.00
52927;BME280;40783;49.710;8.842;2023-04-21T08:14:45;98741.97;;;10.01;100.00
52927;BME280;40783;49.710;8.842;2023-04-21T08:17:10;98736.31;;;10.04;100.00
52927;BME280;40783;49.710;8.842;2023-04-21T08:19:36;98737.97;;;10.21;100.00
52927;BME280;40783;49.710;8.842;2023-04-21T08:22:01;98732.28;;;10.08;100.00
52927;BME280;40783;49.710;8.842;2023-04-21T08:24:26;98725.25;;;10.07;100.00
52927;BME280;40783;49.710;8.842;2023-04-21T08:26:52;98726.59;;;10.11;100.00
52927;BME280;40783;49.710;8.842;2023-04-21T08:29:17;98722.28;;;10.18;100.00
52927;BME280;40783;49.710;8.842;2023-04-21T08:31:45;98722.47;;;10.25;100.00
52927;BME280;40783;49.710;8.842;2023-04-21T08:34:13;98725.97;;;10.34;100.00
52927;BME280;40783;49.710;8.842;2023-04-21T08:36:38;98720.78;;;10.41;100.00
52927;BME280;40783;49.710;8.842;2023-04-21T08:39:06;98715.25;;;10.25;100.00
52927;BME280;40783;49.710;8.842;2023-04-21T08:41:31;98715.44;;;10.32;100.00
52927;BME280;40783;49.710;8.842;2023-04-21T08:43:58;98710.97;;;10.41;100.00
52927;BME280;40783;49.710;8.842;2023-04-21T08:46:26;98701.94;;;10.59;100.00
52927;BME280;40783;49.710;8.842;2023-04-21T08:48:51;98702.41;;;10.71;100.00
52927;BME280;40783;49.710;8.842;2023-04-21T08:51:21;98707.22;;;10.75;100.00
52927;BME280;40783;49.710;8.842;2023-04-21T08:53:49;98697.50;;;10.82;100.00
52927;BME280;40783;49.710;8.842;2023-04-21T08:56:14;98704.53;;;10.83;100.00
52927;BME280;40783;49.710;8.842;2023-04-21T08:58:42;98704.06;;;10.80;100.00
52927;BME280;40783;49.710;8.842;2023-04-21T09:01:07;98708.19;;;10.99;100.00
52927;BME280;40783;49.710;8.842;2023-04-21T09:03:35;98713.22;;;10.86;100.00
52927;BME280;40783;49.710;8.842;2023-04-21T09:06:05;98708.31;;;11.06;100.00
52927;BME280;40783;49.710;8.842;2023-04-21T09:08:31;98713.09;;;11.19;100.00
52927;BME280;40783;49.710;8.842;2023-04-21T09:11:00;98704.50;;;11.00;100.00
52927;BME280;40783;49.710;8.842;2023-04-21T09:13:57;98715.47;;;11.13;100.00
52927;BME280;40783;49.710;8.842;2023-04-21T09:16:30;98717.66;;;11.18;100.00
52927;BME280;40783;49.710;8.842;2023-04-21T09:18:59;98718.16;;;11.13;100.00
52927;BME280;40783;49.710;8.842;2023-04-21T09:21:28;98720.38;;;10.93;100.00
52927;BME280;40783;49.710;8.842;2023-04-21T09:23:54;98722.28;;;10.68;100.00
52927;BME280;40783;49.710;8.842;2023-04-21T09:26:22;98711.66;;;11.08;100.00
52927;BME280;40783;49.710;8.842;2023-04-21T09:28:49;98712.00;;;11.45;100.00
52927;BME280;40783;49.710;8.842;2023-04-21T09:31:20;98711.59;;;11.64;100.00
52927;BME280;40783;49.710;8.842;2023-04-21T09:33:51;98721.19;;;11.50;100.00
52927;BME280;40783;49.710;8.842;2023-04-21T09:36:22;98711.78;;;11.54;100.00
52927;BME280;40783;49.710;8.842;2023-04-21T09:39:00;98719.19;;;11.76;100.00
52927;BME280;40783;49.710;8.842;2023-04-21T09:41:59;98716.41;;;12.00;100.00
52927;BME280;40783;49.710;8.842;2023-04-21T09:44:37;98713.38;;;11.95;100.00
52927;BME280;40783;49.710;8.842;2023-04-21T09:47:50;98710.03;;;12.01;100.00
52927;BME280;40783;49.710;8.842;2023-04-21T09:57:32;98706.59;;;11.61;100.00
52927;BME280;40783;49.710;8.842;2023-04-21T10:00:06;98698.13;;;11.72;100.00
52927;BME280;40783;49.710;8.842;2023-04-21T10:05:45;98705.69;;;12.00;100.00
52927;BME280;40783;49.710;8.842;2023-04-21T10:08:11;98702.66;;;11.72;100.00
52927;BME280;40783;49.710;8.842;2023-04-21T10:10:39;98693.72;;;11.80;100.00
52927;BME280;40783;49.710;8.842;2023-04-21T10:13:06;98698.31;;;12.02;100.00
52927;BME280;40783;49.710;8.842;2023-04-21T10:15:40;98694.84;;;12.17;100.00
52927;BME280;40783;49.710;8.842;2023-04-21T10:18:18;98690.97;;;11.65;100.00
52927;BME280;40783;49.710;8.842;2023-04-21T10:23:28;98691.50;;;11.92;100.00
52927;BME280;40783;49.710;8.842;2023-04-21T10:26:00;98705.25;;;11.88;100.00
52927;BME280;40783;49.710;8.842;2023-04-21T10:28:38;98704.34;;;11.96;100.00
52927;BME280;40783;49.710;8.842;2023-04-21T10:34:13;98705.69;;;12.00;100.00
52927;BME280;40783;49.710;8.842;2023-04-21T10:39:33;98708.25;;;12.17;100.00
52927;BME280;40783;49.710;8.842;2023-04-21T10:44:44;98694.75;;;12.25;100.00
52927;BME280;40783;49.710;8.842;2023-04-21T10:47:24;98701.88;;;12.18;100.00
52927;BME280;40783;49.710;8.842;2023-04-21T10:49:49;98707.44;;;11.85;100.00
52927;BME280;40783;49.710;8.842;2023-04-21T10:52:15;98703.72;;;11.86;100.00
52927;BME280;40783;49.710;8.842;2023-04-21T10:55:04;98693.63;;;11.96;100.00
52927;BME280;40783;49.710;8.842;2023-04-21T10:57:32;98696.09;;;11.75;100.00
52927;BME280;40783;49.710;8.842;2023-04-21T11:00:00;98696.31;;;11.96;100.00
52927;BME280;40783;49.710;8.842;2023-04-21T11:02:25;98688.66;;;11.85;100.00
52927;BME280;40783;49.710;8.842;2023-04-21T11:04:57;98684.25;;;12.00;100.00
52927;BME280;40783;49.710;8.842;2023-04-21T11:07:23;98686.25;;;12.22;100.00
52927;BME280;40783;49.710;8.842;2023-04-21T11:09:58;98678.38;;;12.43;100.00
52927;BME280;40783;49.710;8.842;2023-04-21T11:12:27;98678.19;;;12.75;100.00
52927;BME280;40783;49.710;8.842;2023-04-21T11:14:54;98676.63;;;12.96;100.00
52927;BME280;40783;49.710;8.842;2023-04-21T11:17:19;98673.03;;;12.58;100.00
52927;BME280;40783;49.710;8.842;2023-04-21T11:22:16;98662.09;;;13.20;100.00
52927;BME280;40783;49.710;8.842;2023-04-21T11:24:46;98656.50;;;13.52;100.00
52927;BME280;40783;49.710;8.842;2023-04-21T11:27:14;98657.03;;;13.84;98.24
52927;BME280;40783;49.710;8.842;2023-04-21T11:29:46;98661.00;;;13.66;98.61
52927;BME280;40783;49.710;8.842;2023-04-21T11:32:14;98654.34;;;12.80;100.00
52927;BME280;40783;49.710;8.842;2023-04-21T11:34:40;98654.06;;;13.05;100.00
52927;BME280;40783;49.710;8.842;2023-04-21T11:37:07;98672.38;;;12.86;100.00
52927;BME280;40783;49.710;8.842;2023-04-21T11:39:33;98660.34;;;12.82;100.00
52927;BME280;40783;49.710;8.842;2023-04-21T11:41:58;98657.84;;;12.96;100.00
52927;BME280;40783;49.710;8.842;2023-04-21T11:46:57;98645.63;;;13.08;100.00
52927;BME280;40783;49.710;8.842;2023-04-21T11:49:26;98642.03;;;13.53;100.00
52927;BME280;40783;49.710;8.842;2023-04-21T11:51:55;98641.28;;;13.07;99.46
52927;BME280;40783;49.710;8.842;2023-04-21T11:54:23;98646.22;;;13.40;100.00
52927;BME280;40783;49.710;8.842;2023-04-21T11:56:53;98634.03;;;13.23;100.00
52927;BME280;40783;49.710;8.842;2023-04-21T11:59:21;98646.81;;;13.20;100.00
52927;BME280;40783;49.710;8.842;2023-04-21T12:01:52;98637.03;;;12.98;100.00
52927;BME280;40783;49.710;8.842;2023-04-21T12:04:20;98630.44;;;13.00;100.00
52927;BME280;40783;49.710;8.842;2023-04-21T12:06:55;98632.63;;;13.27;100.00
52927;BME280;40783;49.710;8.842;2023-04-21T12:09:20;98641.78;;;13.47;100.00
52927;BME280;40783;49.710;8.842;2023-04-21T12:11:47;98647.97;;;13.33;100.00
52927;BME280;40783;49.710;8.842;2023-04-21T12:14:14;98654.22;;;13.18;100.00
52927;BME280;40783;49.710;8.842;2023-04-21T12:16:41;98643.44;;;13.48;99.19
52927;BME280;40783;49.710;8.842;2023-04-21T12:19:06;98643.84;;;13.67;100.00
52927;BME280;40783;49.710;8.842;2023-04-21T12:21:31;98652.81;;;13.74;95.15
52927;BME280;40783;49.710;8.842;2023-04-21T12:23:59;98643.34;;;13.57;99.34
52927;BME280;40783;49.710;8.842;2023-04-21T12:26:27;98648.13;;;13.61;99.57
52927;BME280;40783;49.710;8.842;2023-04-21T12:28:52;98635.13;;;13.87;95.71
52927;BME280;40783;49.710;8.842;2023-04-21T12:31:17;98629.00;;;13.93;96.86
52927;BME280;40783;49.710;8.842;2023-04-21T12:33:43;98625.75;;;13.98;96.32
52927;BME280;40783;49.710;8.842;2023-04-21T12:36:08;98622.72;;;14.07;97.97
52927;BME280;40783;49.710;8.842;2023-04-21T12:38:34;98612.94;;;14.00;97.02
52927;BME280;40783;49.710;8.842;2023-04-21T12:40:59;98618.09;;;14.23;97.07
52927;BME280;40783;49.710;8.842;2023-04-21T12:43:27;98611.06;;;14.22;95.70
52927;BME280;40783;49.710;8.842;2023-04-21T12:45:54;98603.41;;;14.25;93.27
52927;BME280;40783;49.710;8.842;2023-04-21T12:48:20;98600.38;;;14.35;94.73
52927;BME280;40783;49.710;8.842;2023-04-21T12:50:47;98601.25;;;14.43;95.52
52927;BME280;40783;49.710;8.842;2023-04-21T12:53:13;98599.19;;;14.45;96.68
52927;BME280;40783;49.710;8.842;2023-04-21T12:55:40;98595.63;;;14.37;94.47
52927;BME280;40783;49.710;8.842;2023-04-21T12:58:06;98605.72;;;14.29;94.91
52927;BME280;40783;49.710;8.842;2023-04-21T13:00:32;98603.16;;;14.20;96.22
52927;BME280;40783;49.710;8.842;2023-04-21T13:02:59;98590.97;;;13.96;92.88
52927;BME280;40783;49.710;8.842;2023-04-21T13:05:25;98586.94;;;14.07;96.47
52927;BME280;40783;49.710;8.842;2023-04-21T13:07:50;98585.22;;;13.99;94.45
52927;BME280;40783;49.710;8.842;2023-04-21T13:10:19;98587.53;;;14.02;95.32
52927;BME280;40783;49.710;8.842;2023-04-21T13:12:44;98587.00;;;14.14;92.41
52927;BME280;40783;49.710;8.842;2023-04-21T13:15:10;98585.38;;;14.19;93.41
52927;BME280;40783;49.710;8.842;2023-04-21T13:17:36;98590.84;;;14.33;91.84
52927;BME280;40783;49.710;8.842;2023-04-21T13:20:01;98571.03;;;14.40;92.20
52927;BME280;40783;49.710;8.842;2023-04-21T13:22:29;98566.44;;;14.34;92.49
52927;BME280;40783;49.710;8.842;2023-04-21T13:24:54;98551.94;;;14.35;90.50